Time;durP1;ratioP1;P1;durP2;ratioP2;P2;SDS_P1;SDS_P2;PMS_P1;PMS_P2;Temp;Humidity;BMP_temperature;BMP_pressure;BME280_temperature;BME280_humidity;BME280_pressure;Samples;Min_cycle;Max_cycle;Signal;HPM_P1;HPM_P2
2021/09/18 00:00:04;;;;;;;;;;;19.10;97.90;19.20;99290.00;;;;340902;28;83454;-94
2021/09/18 00:00:16;;;;;;;;;;;19.10;98.20;19.20;99293.00;;;;340304;28;96130;-94
2021/09/18 00:00:28;;;;;;;;;;;19.10;97.90;19.20;99285.00;;;;340821;28;83537;-94
2021/09/18 00:00:40;;;;;;;;;;;19.10;97.90;19.20;99296.00;;;;340141;28;95190;-94
2021/09/18 00:00:53;;;;;;;;;;;19.10;97.90;19.20;99294.00;;;;340981;28;83361;-94
2021/09/18 00:01:05;;;;;;;;;;;19.10;97.90;19.20;99289.00;;;;338935;28;96335;-94
2021/09/18 00:01:17;;;;;;;;;;;19.10;97.90;19.30;99292.00;;;;339671;28;82590;-94
2021/09/18 00:01:29;;;;;;;;;;;19.10;98.00;19.30;99293.00;;;;340244;28;96752;-94
2021/09/18 00:01:41;;;;;;;;;;;19.10;98.00;19.20;99295.00;;;;339699;28;82596;-94
2021/09/18 00:01:53;;;;;;;;;;;19.10;98.00;19.20;99291.00;;;;338834;28;96399;-94
2021/09/18 00:02:05;;;;;;;;;;;19.10;98.10;19.20;99296.00;;;;343629;28;83365;-94
2021/09/18 00:02:18;;;;;;;;;;;19.00;98.20;19.10;99290.00;;;;341507;28;97910;-94
2021/09/18 00:02:30;;;;;;;;;;;19.00;98.20;19.20;99295.00;;;;342182;28;83550;-94
2021/09/18 00:02:42;;;;;;;;;;;19.10;98.20;19.20;99296.00;;;;338801;28;95564;-94
2021/09/18 00:02:54;;;;;;;;;;;19.00;98.10;19.20;99297.00;;;;339691;28;82467;-94
2021/09/18 00:03:06;;;;;;;;;;;19.00;98.20;19.10;99289.00;;;;340324;28;95460;-94
2021/09/18 00:03:19;;;;;;;;;;;19.00;98.20;19.10;99298.00;;;;342257;28;83453;-93
2021/09/18 00:03:31;;;;;;;;;;;19.00;98.20;19.10;99291.00;;;;338804;28;96571;-94
2021/09/18 00:03:43;;;;;;;;;;;19.00;98.10;19.10;99295.00;;;;338435;28;82516;-94
2021/09/18 00:03:55;;;;;;;;;;;19.00;98.20;19.10;99289.00;;;;338815;28;96494;-94
2021/09/18 00:04:08;;;;;;;;;;;19.00;98.20;19.20;99298.00;;;;342385;28;83447;-94
2021/09/18 00:04:20;;;;;;;;;;;19.00;98.10;19.30;99289.00;;;;342859;28;96500;-94
2021/09/18 00:04:32;;;;;;;;;;;19.00;98.20;19.20;99288.00;;;;342147;28;83501;-94
2021/09/18 00:04:44;;;;;;;;;;;19.00;98.20;19.20;99289.00;;;;340254;28;95437;-94
2021/09/18 00:04:56;;;;;;;;;;;19.00;98.10;19.20;99304.00;;;;341384;28;82463;-94
2021/09/18 00:05:08;;;;;;;;;;;19.00;98.10;19.20;99294.00;;;;340167;28;95059;-94
2021/09/18 00:05:20;;;;;;;;;;;19.00;98.10;19.10;99293.00;;;;341003;28;83594;-94
2021/09/18 00:05:32;;;;;;;;;;;19.00;98.10;19.00;99293.00;;;;341577;28;96239;-94
2021/09/18 00:05:44;;;;;;;;;;;19.00;98.20;19.00;99297.00;;;;340923;28;83471;-94
2021/09/18 00:05:56;;;;;;;;;;;19.00;98.20;19.00;99291.00;;;;342723;28;95348;-93
2021/09/18 00:06:07;;;;;;;;;;;19.00;98.30;18.90;99294.00;;;;342399;28;83448;-94
2021/09/18 00:06:19;;;;;;;;;;;18.90;98.30;18.90;99297.00;;;;341546;28;95778;-94
2021/09/18 00:06:32;;;;;;;;;;;19.00;98.40;19.00;99291.00;;;;342307;28;83418;-94
2021/09/18 00:06:44;;;;;;;;;;;18.90;98.40;19.10;99296.00;;;;341513;28;96185;-95
2021/09/18 00:06:56;;;;;;;;;;;19.00;98.40;19.00;99295.00;;;;340943;28;82511;-95
2021/09/18 00:07:08;;;;;;;;;;;18.90;98.40;19.00;99296.00;;;;341635;28;95165;-94
2021/09/18 00:07:19;;;;;;;;;;;18.90;98.40;18.90;99297.00;;;;340966;28;83472;-94
2021/09/18 00:07:31;;;;;;;;;;;18.90;98.40;18.90;99294.00;;;;342935;28;96791;-93
2021/09/18 00:07:43;;;;;;;;;;;18.90;98.50;18.90;99298.00;;;;339605;28;83484;-94
2021/09/18 00:07:55;;;;;;;;;;;18.90;98.50;18.90;99306.00;;;;342507;28;96379;-94
2021/09/18 00:08:07;;;;;;;;;;;18.90;98.50;18.90;99297.00;;;;345045;28;82534;-94
2021/09/18 00:08:19;;;;;;;;;;;18.90;98.60;19.00;99295.00;;;;344305;28;96374;-94
2021/09/18 00:08:30;;;;;;;;;;;18.90;98.40;19.00;99288.00;;;;342321;28;82536;-94
2021/09/18 00:08:42;;;;;;;;;;;18.90;98.50;18.90;99290.00;;;;342667;28;97241;-94
2021/09/18 00:08:54;;;;;;;;;;;18.90;98.60;19.00;99298.00;;;;343550;28;83439;-93
2021/09/18 00:09:06;;;;;;;;;;;18.90;98.50;19.00;99298.00;;;;340186;28;97255;-93
2021/09/18 00:09:18;;;;;;;;;;;18.90;98.40;19.00;99299.00;;;;342069;28;82575;-94
2021/09/18 00:09:29;;;;;;;;;;;18.90;98.40;19.00;99295.00;;;;341447;28;96150;-95
2021/09/18 00:09:41;;;;;;;;;;;18.90;98.40;19.10;99298.00;;;;341054;28;82483;-94
2021/09/18 00:09:53;;;;;;;;;;;18.90;98.30;19.00;99308.00;;;;340134;28;96926;-94
2021/09/18 00:10:06;;;;;;;;;;;18.90;98.40;19.10;99297.00;;;;340853;28;83537;-94
2021/09/18 00:10:18;;;;;;;;;;;18.90;98.40;19.10;99298.00;;;;338904;28;95975;-94
2021/09/18 00:10:30;;;;;;;;;;;18.90;98.40;19.10;99297.00;;;;338500;28;82468;-94
2021/09/18 00:10:42;;;;;;;;;;;18.90;98.40;19.10;99296.00;;;;338900;28;96757;-94
2021/09/18 00:10:54;;;;;;;;;;;18.90;98.40;19.10;99305.00;;;;339187;28;83488;-94
2021/09/18 00:11:06;;;;;;;;;;;18.90;98.40;19.00;99291.00;;;;337720;28;95703;-94
2021/09/18 00:11:17;;;;;;;;;;;18.90;98.40;19.10;99297.00;;;;339604;28;83436;-94
2021/09/18 00:11:30;;;;;;;;;;;18.90;98.40;19.10;99305.00;;;;340247;28;95524;-94
2021/09/18 00:11:41;;;;;;;;;;;18.90;98.40;19.10;99304.00;;;;340978;28;83335;-95
2021/09/18 00:11:53;;;;;;;;;;;18.90;98.40;19.10;99300.00;;;;341621;28;95512;-94
2021/09/18 00:12:05;;;;;;;;;;;18.90;98.30;19.10;99300.00;;;;342212;28;83490;-94
2021/09/18 00:12:17;;;;;;;;;;;18.90;98.40;19.10;99297.00;;;;341450;28;96123;-94
2021/09/18 00:12:29;;;;;;;;;;;18.90;98.30;19.00;99295.00;;;;340990;28;82473;-94
2021/09/18 00:12:41;;;;;;;;;;;18.90;98.40;19.00;99306.00;;;;341329;28;94792;-94
2021/09/18 00:12:53;;;;;;;;;;;18.90;98.60;19.00;99308.00;;;;342298;28;82477;-94
2021/09/18 00:13:04;;;;;;;;;;;18.90;98.40;19.10;99296.00;;;;340187;28;96709;-94
2021/09/18 00:13:16;;;;;;;;;;;18.90;98.40;19.10;99300.00;;;;342217;28;83595;-94
2021/09/18 00:13:29;;;;;;;;;;;18.90;98.30;19.00;99307.00;;;;342779;28;95483;-94
2021/09/18 00:13:41;;;;;;;;;;;18.90;98.40;19.10;99307.00;;;;340820;28;82562;-93
2021/09/18 00:13:53;;;;;;;;;;;18.90;98.40;19.10;99304.00;;;;341357;28;96411;-94
2021/09/18 00:14:05;;;;;;;;;;;18.90;98.50;19.10;99306.00;;;;340757;28;82553;-93
2021/09/18 00:14:18;;;;;;;;;;;18.90;98.50;19.00;99300.00;;;;342860;28;96754;-94
2021/09/18 00:14:29;;;;;;;;;;;18.90;98.50;19.00;99305.00;;;;346327;28;83422;-94
2021/09/18 00:14:42;;;;;;;;;;;18.80;98.50;19.00;99307.00;;;;341462;28;96298;-94
2021/09/18 00:14:53;;;;;;;;;;;18.90;98.50;19.10;99304.00;;;;340680;28;83575;-94
2021/09/18 00:15:06;;;;;;;;;;;18.80;98.40;19.00;99306.00;;;;341417;28;96454;-95
2021/09/18 00:15:18;;;;;;;;;;;18.90;98.50;18.90;99304.00;;;;343651;28;82549;-94
2021/09/18 00:15:30;;;;;;;;;;;18.90;98.50;18.90;99306.00;;;;342824;28;92986;-94
2021/09/18 00:15:42;;;;;;;;;;;18.80;98.50;18.90;99305.00;;;;340899;28;83468;-94
2021/09/18 00:15:54;;;;;;;;;;;18.80;98.60;18.80;99308.00;;;;338834;28;96126;-94
2021/09/18 00:16:06;;;;;;;;;;;18.90;98.60;18.80;99313.00;;;;340891;28;82263;-94
2021/09/18 00:16:18;;;;;;;;;;;18.90;98.60;18.80;99306.00;;;;340214;28;96469;-94
2021/09/18 00:16:30;;;;;;;;;;;18.80;98.60;18.80;99300.00;;;;340928;28;82346;-94
2021/09/18 00:16:42;;;;;;;;;;;18.80;98.70;18.80;99299.00;;;;340115;28;96372;-94
2021/09/18 00:16:54;;;;;;;;;;;18.80;98.80;18.80;99304.00;;;;340240;28;83470;-94
2021/09/18 00:17:06;;;;;;;;;;;18.80;98.80;18.90;99306.00;;;;340124;28;96898;-93
2021/09/18 00:17:18;;;;;;;;;;;18.80;98.70;18.80;99298.00;;;;343681;28;83345;-94
2021/09/18 00:17:30;;;;;;;;;;;18.80;98.70;18.80;99299.00;;;;341578;28;95401;-94
2021/09/18 00:17:42;;;;;;;;;;;18.80;98.70;18.80;99298.00;;;;342231;28;82440;-94
2021/09/18 00:17:54;;;;;;;;;;;18.80;98.70;18.90;99297.00;;;;338767;28;96542;-95
2021/09/18 00:18:05;;;;;;;;;;;18.80;98.60;18.90;99305.00;;;;341003;28;82630;-95
2021/09/18 00:18:17;;;;;;;;;;;18.80;98.60;18.90;99308.00;;;;341433;28;96636;-94
2021/09/18 00:18:29;;;;;;;;;;;18.80;98.80;18.90;99304.00;;;;338115;28;83358;-94
2021/09/18 00:18:41;;;;;;;;;;;18.80;98.60;18.90;99309.00;;;;338744;28;96435;-94
2021/09/18 00:18:53;;;;;;;;;;;18.80;98.60;18.90;99304.00;;;;342300;28;83389;-94
2021/09/18 00:19:04;;;;;;;;;;;18.80;98.60;18.90;99291.00;;;;340060;28;95510;-94
2021/09/18 00:19:16;;;;;;;;;;;18.80;98.60;18.90;99293.00;;;;342243;28;83283;-94
2021/09/18 00:19:28;;;;;;;;;;;18.80;98.50;19.00;99296.00;;;;343005;28;95285;-94
2021/09/18 00:19:40;;;;;;;;;;;18.80;98.60;18.90;99294.00;;;;342383;28;82501;-94
2021/09/18 00:19:52;;;;;;;;;;;18.80;98.70;18.90;99295.00;;;;337504;28;96433;-94
2021/09/18 00:20:08;;;;;;;;;;;18.80;98.80;18.90;99295.00;;;;340879;28;83460;-94
2021/09/18 00:20:20;;;;;;;;;;;18.80;98.70;18.90;99299.00;;;;340178;28;97708;-94
2021/09/18 00:20:32;;;;;;;;;;;18.80;98.60;18.90;99300.00;;;;338179;28;82486;-94
2021/09/18 00:20:44;;;;;;;;;;;18.80;98.60;18.90;99298.00;;;;338776;28;97061;-94
2021/09/18 00:20:58;;;;;;;;;;;18.80;98.60;18.80;99305.00;;;;341996;28;84122;-94
2021/09/18 00:21:10;;;;;;;;;;;18.80;98.70;18.90;99299.00;;;;341390;28;96707;-94
2021/09/18 00:21:22;;;;;;;;;;;18.80;98.80;18.90;99298.00;;;;342314;28;83366;-94
2021/09/18 00:21:35;;;;;;;;;;;18.80;98.70;18.90;99299.00;;;;340357;28;95274;-94
2021/09/18 00:21:47;;;;;;;;;;;18.70;98.60;18.90;99300.00;;;;339521;28;83385;-93
2021/09/18 00:21:59;;;;;;;;;;;18.80;98.70;18.90;99299.00;;;;337353;28;95483;-94
2021/09/18 00:22:10;;;;;;;;;;;18.80;98.60;18.90;99309.00;;;;340829;28;83364;-94
2021/09/18 00:22:22;;;;;;;;;;;18.80;98.60;18.90;99300.00;;;;339896;28;97936;-94
2021/09/18 00:22:34;;;;;;;;;;;18.80;98.80;18.90;99297.00;;;;340869;28;82512;-94
2021/09/18 00:22:47;;;;;;;;;;;18.80;98.70;18.90;99299.00;;;;338789;28;97309;-94
2021/09/18 00:22:59;;;;;;;;;;;18.80;98.60;19.00;99306.00;;;;341451;28;83630;-94
2021/09/18 00:23:11;;;;;;;;;;;18.80;98.70;19.00;99300.00;;;;341312;28;95520;-94
2021/09/18 00:23:22;;;;;;;;;;;18.80;98.70;19.00;99304.00;;;;343630;28;82426;-94
2021/09/18 00:23:34;;;;;;;;;;;18.80;98.80;18.90;99304.00;;;;340181;28;96305;-94
2021/09/18 00:23:46;;;;;;;;;;;18.70;98.80;18.80;99296.00;;;;339678;28;83685;-94
2021/09/18 00:23:58;;;;;;;;;;;18.80;98.90;18.80;99307.00;;;;339985;28;95873;-94
2021/09/18 00:24:10;;;;;;;;;;;18.80;99.00;18.80;99308.00;;;;339566;28;83369;-93
2021/09/18 00:24:21;;;;;;;;;;;18.80;99.10;18.80;99304.00;;;;340238;28;96191;-94
2021/09/18 00:24:33;;;;;;;;;;;18.70;99.10;18.80;99299.00;;;;340816;28;83422;-94
2021/09/18 00:24:45;;;;;;;;;;;18.80;99.10;18.80;99300.00;;;;337484;28;96746;-94
2021/09/18 00:24:57;;;;;;;;;;;18.80;99.10;18.80;99299.00;;;;341008;28;83449;-93
2021/09/18 00:25:09;;;;;;;;;;;18.80;99.00;18.80;99298.00;;;;338851;28;95211;-94
2021/09/18 00:25:21;;;;;;;;;;;18.70;98.90;18.80;99310.00;;;;338221;28;83507;-94
2021/09/18 00:25:33;;;;;;;;;;;18.80;99.00;18.90;99294.00;;;;341564;28;95084;-93
2021/09/18 00:25:44;;;;;;;;;;;18.70;98.90;19.00;99311.00;;;;342284;28;82456;-94
2021/09/18 00:25:56;;;;;;;;;;;18.70;99.00;18.90;99306.00;;;;342890;28;95598;-94
2021/09/18 00:26:08;;;;;;;;;;;18.80;99.10;18.90;99298.00;;;;343507;28;83412;-94
2021/09/18 00:26:21;;;;;;;;;;;18.80;99.10;19.00;99309.00;;;;341381;28;96809;-95
2021/09/18 00:26:34;;;;;;;;;;;18.70;99.00;19.10;99304.00;;;;343582;28;83315;-93
2021/09/18 00:26:45;;;;;;;;;;;18.70;99.00;19.10;99299.00;;;;340082;28;97050;-95
2021/09/18 00:26:57;;;;;;;;;;;18.80;99.10;19.00;99304.00;;;;340823;28;82448;-94
2021/09/18 00:27:09;;;;;;;;;;;18.80;99.00;19.10;99307.00;;;;338772;28;96275;-94
2021/09/18 00:27:21;;;;;;;;;;;18.80;99.00;19.00;99311.00;;;;340597;28;83554;-94
2021/09/18 00:27:33;;;;;;;;;;;18.80;99.00;18.90;99309.00;;;;340102;28;96648;-94
2021/09/18 00:27:45;;;;;;;;;;;18.80;99.00;19.00;99305.00;;;;342354;28;82472;-94
2021/09/18 00:27:57;;;;;;;;;;;18.80;99.00;19.00;99312.00;;;;341476;28;95772;-94
2021/09/18 00:28:08;;;;;;;;;;;18.80;99.00;19.10;99314.00;;;;340840;28;83338;-95
2021/09/18 00:28:20;;;;;;;;;;;18.80;98.90;19.10;99313.00;;;;341199;28;96907;-93
2021/09/18 00:28:32;;;;;;;;;;;18.80;98.90;19.10;99310.00;;;;343641;28;83430;-94
2021/09/18 00:28:44;;;;;;;;;;;18.80;99.00;19.10;99310.00;;;;341490;28;95658;-94
2021/09/18 00:28:56;;;;;;;;;;;18.80;99.00;19.20;99306.00;;;;340209;28;82428;-94
2021/09/18 00:29:07;;;;;;;;;;;18.80;99.00;19.20;99306.00;;;;340179;28;95145;-94
2021/09/18 00:29:19;;;;;;;;;;;18.80;99.00;19.20;99307.00;;;;340731;28;82608;-93
2021/09/18 00:29:31;;;;;;;;;;;18.80;99.00;19.10;99315.00;;;;341459;28;95928;-94
2021/09/18 00:29:43;;;;;;;;;;;18.80;98.90;19.20;99306.00;;;;342148;28;83436;-94
2021/09/18 00:29:55;;;;;;;;;;;18.80;98.80;19.20;99314.00;;;;342713;28;95463;-94
2021/09/18 00:30:07;;;;;;;;;;;18.80;98.80;19.20;99306.00;;;;342160;28;83461;-94
2021/09/18 00:30:19;;;;;;;;;;;18.80;98.90;19.20;99310.00;;;;338866;28;96329;-93
2021/09/18 00:30:30;;;;;;;;;;;18.80;98.80;19.20;99322.00;;;;339608;28;83336;-94
2021/09/18 00:30:42;;;;;;;;;;;18.80;98.80;19.20;99310.00;;;;341568;28;94848;-94
2021/09/18 00:30:54;;;;;;;;;;;18.80;98.80;19.10;99310.00;;;;340957;28;83451;-93
2021/09/18 00:31:06;;;;;;;;;;;18.80;98.80;19.00;99310.00;;;;340157;28;95604;-94
2021/09/18 00:31:18;;;;;;;;;;;18.80;98.80;19.00;99316.00;;;;343722;28;82364;-93
2021/09/18 00:31:30;;;;;;;;;;;18.80;98.80;19.10;99309.00;;;;341652;28;94273;-93
2021/09/18 00:31:43;;;;;;;;;;;18.80;98.80;19.10;99304.00;;;;343692;28;83305;-94
2021/09/18 00:31:54;;;;;;;;;;;18.80;98.80;19.00;99308.00;;;;343091;28;95472;-94
2021/09/18 00:32:06;;;;;;;;;;;18.80;98.80;19.00;99315.00;;;;340944;28;83476;-95
2021/09/18 00:32:18;;;;;;;;;;;18.80;98.80;19.00;99311.00;;;;340125;28;97720;-94
2021/09/18 00:32:30;;;;;;;;;;;18.90;98.80;19.00;99318.00;;;;339464;28;83398;-94
2021/09/18 00:32:43;;;;;;;;;;;18.80;98.70;19.00;99310.00;;;;340293;28;94994;-93
2021/09/18 00:32:55;;;;;;;;;;;18.80;98.80;19.10;99314.00;;;;340954;28;83411;-94
2021/09/18 00:33:06;;;;;;;;;;;18.80;98.70;19.00;99319.00;;;;337541;28;96294;-93
2021/09/18 00:33:18;;;;;;;;;;;18.90;98.70;19.00;99312.00;;;;342210;28;83607;-94
2021/09/18 00:33:31;;;;;;;;;;;18.80;98.70;19.00;99308.00;;;;341380;28;96776;-94
2021/09/18 00:33:43;;;;;;;;;;;18.80;98.70;19.00;99309.00;;;;341070;28;82445;-93
2021/09/18 00:33:55;;;;;;;;;;;18.80;98.80;18.90;99307.00;;;;341500;28;95538;-93
2021/09/18 00:34:07;;;;;;;;;;;18.80;98.80;18.90;99312.00;;;;343549;28;83460;-93
2021/09/18 00:34:18;;;;;;;;;;;18.80;98.90;18.90;99308.00;;;;341300;28;97004;-94
2021/09/18 00:34:30;;;;;;;;;;;18.80;98.80;18.80;99311.00;;;;342218;28;83451;-94
2021/09/18 00:34:42;;;;;;;;;;;18.80;98.80;18.90;99312.00;;;;341395;28;96487;-94
2021/09/18 00:34:54;;;;;;;;;;;18.80;98.90;18.90;99304.00;;;;342102;28;82464;-93
2021/09/18 00:35:06;;;;;;;;;;;18.80;98.80;18.90;99310.00;;;;340142;28;97149;-94
2021/09/18 00:35:18;;;;;;;;;;;18.80;98.80;18.90;99299.00;;;;340809;28;83414;-94
2021/09/18 00:35:30;;;;;;;;;;;18.80;99.00;18.90;99312.00;;;;340096;28;96965;-94
2021/09/18 00:35:42;;;;;;;;;;;18.80;99.00;18.80;99308.00;;;;340881;28;82617;-94
2021/09/18 00:35:54;;;;;;;;;;;18.80;99.00;18.80;99312.00;;;;338662;28;96723;-94
2021/09/18 00:36:06;;;;;;;;;;;18.80;99.00;18.90;99309.00;;;;340839;28;83433;-93
2021/09/18 00:36:18;;;;;;;;;;;18.70;98.90;18.80;99304.00;;;;339883;28;98072;-94
2021/09/18 00:36:30;;;;;;;;;;;18.70;99.10;18.70;99310.00;;;;340913;28;83427;-94
2021/09/18 00:36:42;;;;;;;;;;;18.70;99.10;18.70;99304.00;;;;337383;28;96551;-93
2021/09/18 00:36:53;;;;;;;;;;;18.70;99.10;18.80;99307.00;;;;339487;28;82460;-94
2021/09/18 00:37:05;;;;;;;;;;;18.70;99.10;18.80;99305.00;;;;340156;28;95478;-94
2021/09/18 00:37:17;;;;;;;;;;;18.70;99.20;18.80;99307.00;;;;339460;28;83547;-94
2021/09/18 00:37:29;;;;;;;;;;;18.70;99.10;18.80;99304.00;;;;338763;28;96480;-94
2021/09/18 00:37:41;;;;;;;;;;;18.70;99.00;18.80;99310.00;;;;336982;28;83409;-95
2021/09/18 00:37:52;;;;;;;;;;;18.70;99.10;18.80;99300.00;;;;337422;28;95808;-94
2021/09/18 00:38:04;;;;;;;;;;;18.70;99.00;18.80;99306.00;;;;339544;28;83808;-94
2021/09/18 00:38:17;;;;;;;;;;;18.70;99.10;18.70;99298.00;;;;341266;28;96774;-94
2021/09/18 00:38:28;;;;;;;;;;;18.70;99.20;18.60;99309.00;;;;341453;28;83558;-94
2021/09/18 00:38:40;;;;;;;;;;;18.70;99.20;18.70;99309.00;;;;342760;28;95895;-93
2021/09/18 00:38:52;;;;;;;;;;;18.60;99.10;18.90;99297.00;;;;343681;28;82514;-94
2021/09/18 00:39:04;;;;;;;;;;;18.60;99.10;18.90;99298.00;;;;341479;28;95393;-93
2021/09/18 00:39:16;;;;;;;;;;;18.60;99.10;18.90;99304.00;;;;342184;28;82457;-94
2021/09/18 00:39:28;;;;;;;;;;;18.60;99.10;18.90;99305.00;;;;342874;28;92676;-94
2021/09/18 00:39:39;;;;;;;;;;;18.60;99.10;18.80;99300.00;;;;343579;28;83387;-94
2021/09/18 00:39:51;;;;;;;;;;;18.60;99.10;18.70;99304.00;;;;342805;28;96284;-94
2021/09/18 00:40:04;;;;;;;;;;;18.60;99.20;18.90;99307.00;;;;341975;28;83473;-94
2021/09/18 00:40:16;;;;;;;;;;;18.60;99.20;18.90;99312.00;;;;342762;28;97847;-93
2021/09/18 00:40:28;;;;;;;;;;;18.60;99.10;19.00;99307.00;;;;340837;28;82594;-94
2021/09/18 00:40:40;;;;;;;;;;;18.70;99.10;19.00;99305.00;;;;340071;28;95232;-94
2021/09/18 00:40:52;;;;;;;;;;;18.70;99.10;18.90;99311.00;;;;343584;28;83317;-94
2021/09/18 00:41:04;;;;;;;;;;;18.60;99.20;18.90;99298.00;;;;341526;28;94246;-94
2021/09/18 00:41:16;;;;;;;;;;;18.60;99.10;18.80;99295.00;;;;342282;28;82489;-93
2021/09/18 00:41:28;;;;;;;;;;;18.60;99.10;18.80;99307.00;;;;342836;28;95915;-93
2021/09/18 00:41:40;;;;;;;;;;;18.60;99.10;18.80;99307.00;;;;342304;28;83359;-94
2021/09/18 00:41:51;;;;;;;;;;;18.60;99.10;18.70;99306.00;;;;342541;28;97297;-94
2021/09/18 00:42:03;;;;;;;;;;;18.60;99.10;18.80;99300.00;;;;342181;28;82545;-93
2021/09/18 00:42:15;;;;;;;;;;;18.60;99.10;18.90;99310.00;;;;341293;28;97132;-94
2021/09/18 00:42:27;;;;;;;;;;;18.60;99.20;19.00;99312.00;;;;343541;28;83354;-94
2021/09/18 00:42:39;;;;;;;;;;;18.60;99.20;19.00;99297.00;;;;339969;28;96364;-94
2021/09/18 00:42:51;;;;;;;;;;;18.60;99.10;18.90;99308.00;;;;340804;28;83488;-93
2021/09/18 00:43:02;;;;;;;;;;;18.60;99.10;18.70;99310.00;;;;340154;28;97004;-94
2021/09/18 00:43:14;;;;;;;;;;;18.60;99.10;18.80;99300.00;;;;339454;28;83517;-94
2021/09/18 00:43:26;;;;;;;;;;;18.60;99.10;18.80;99310.00;;;;340083;28;96371;-93
2021/09/18 00:43:38;;;;;;;;;;;18.60;99.10;18.80;99308.00;;;;343588;28;83385;-93
2021/09/18 00:43:51;;;;;;;;;;;18.60;99.20;18.80;99307.00;;;;341632;28;93126;-93
2021/09/18 00:44:03;;;;;;;;;;;18.60;99.20;18.90;99306.00;;;;343380;28;84585;-94
2021/09/18 00:44:17;;;;;;;;;;;18.60;99.20;19.00;99305.00;;;;342783;28;97659;-93
2021/09/18 00:44:29;;;;;;;;;;;18.60;99.20;19.00;99307.00;;;;342026;28;83540;-94
2021/09/18 00:44:41;;;;;;;;;;;18.60;99.20;19.00;99307.00;;;;341439;28;96402;-94
2021/09/18 00:44:53;;;;;;;;;;;18.60;99.20;18.90;99304.00;;;;341004;28;83348;-93
2021/09/18 00:45:05;;;;;;;;;;;18.60;99.10;18.80;99310.00;;;;341559;28;96574;-94
2021/09/18 00:45:17;;;;;;;;;;;18.60;99.20;18.70;99308.00;;;;340890;28;82577;-93
2021/09/18 00:45:29;;;;;;;;;;;18.60;99.10;18.60;99304.00;;;;344103;28;97080;-94
2021/09/18 00:45:41;;;;;;;;;;;18.60;99.20;18.70;99308.00;;;;342215;28;83304;-93
2021/09/18 00:45:52;;;;;;;;;;;18.60;99.30;18.60;99311.00;;;;341439;28;96394;-94
2021/09/18 00:46:04;;;;;;;;;;;18.60;99.30;18.60;99307.00;;;;343538;28;83432;-93
2021/09/18 00:46:16;;;;;;;;;;;18.60;99.30;18.60;99306.00;;;;338787;28;96258;-93
2021/09/18 00:46:28;;;;;;;;;;;18.50;99.20;18.60;99298.00;;;;339392;28;83277;-94
2021/09/18 00:46:40;;;;;;;;;;;18.50;99.20;18.50;99309.00;;;;341313;28;96575;-93
2021/09/18 00:46:52;;;;;;;;;;;18.50;99.20;18.60;99308.00;;;;342234;28;83420;-93
2021/09/18 00:47:04;;;;;;;;;;;18.50;99.30;18.50;99313.00;;;;338753;28;96451;-93
2021/09/18 00:47:16;;;;;;;;;;;18.50;99.30;18.50;99299.00;;;;341954;28;83406;-94
2021/09/18 00:47:27;;;;;;;;;;;18.50;99.30;18.50;99305.00;;;;338766;28;96603;-94
2021/09/18 00:47:39;;;;;;;;;;;18.50;99.20;18.50;99304.00;;;;340737;28;82569;-93
2021/09/18 00:47:51;;;;;;;;;;;18.50;99.20;18.60;99313.00;;;;340146;28;95563;-94
2021/09/18 00:48:04;;;;;;;;;;;18.50;99.20;18.60;99310.00;;;;339521;28;82496;-93
2021/09/18 00:48:16;;;;;;;;;;;18.50;99.20;18.70;99309.00;;;;338663;28;97176;-94
2021/09/18 00:48:28;;;;;;;;;;;18.50;99.10;18.70;99307.00;;;;339496;28;82401;-94
2021/09/18 00:48:39;;;;;;;;;;;18.50;99.10;18.70;99314.00;;;;339937;28;96554;-94
2021/09/18 00:48:51;;;;;;;;;;;18.50;99.10;18.60;99307.00;;;;340829;28;83314;-94
2021/09/18 00:49:03;;;;;;;;;;;18.50;99.20;18.60;99313.00;;;;338805;28;96530;-94
2021/09/18 00:49:15;;;;;;;;;;;18.50;99.20;18.50;99300.00;;;;343450;28;83343;-94
2021/09/18 00:49:27;;;;;;;;;;;18.50;99.30;18.50;99305.00;;;;339939;28;94539;-93
2021/09/18 00:49:39;;;;;;;;;;;18.50;99.40;18.40;99307.00;;;;339463;28;83490;-94
2021/09/18 00:49:50;;;;;;;;;;;18.50;99.40;18.40;99305.00;;;;341458;28;95535;-94
2021/09/18 00:50:03;;;;;;;;;;;18.50;99.40;18.40;99312.00;;;;339508;28;82584;-93
2021/09/18 00:50:15;;;;;;;;;;;18.50;99.40;18.40;99309.00;;;;337329;28;96268;-94
2021/09/18 00:50:27;;;;;;;;;;;18.50;99.40;18.40;99312.00;;;;339560;28;82454;-93
2021/09/18 00:50:38;;;;;;;;;;;18.40;99.40;18.40;99309.00;;;;337276;28;96217;-94
2021/09/18 00:50:50;;;;;;;;;;;18.40;99.40;18.40;99311.00;;;;339417;28;82685;-94
2021/09/18 00:51:02;;;;;;;;;;;18.40;99.50;18.40;99309.00;;;;339964;28;95683;-94
2021/09/18 00:51:14;;;;;;;;;;;18.40;99.50;18.50;99310.00;;;;339449;28;82448;-93
2021/09/18 00:51:26;;;;;;;;;;;18.40;99.60;18.50;99310.00;;;;339803;28;95728;-93
2021/09/18 00:51:38;;;;;;;;;;;18.40;99.50;18.40;99312.00;;;;339509;28;82570;-94
2021/09/18 00:51:50;;;;;;;;;;;18.40;99.50;18.50;99307.00;;;;340123;28;96446;-93
2021/09/18 00:52:02;;;;;;;;;;;18.40;99.50;18.60;99312.00;;;;343509;28;83414;-94
2021/09/18 00:52:18;;;;;;;;;;;18.40;99.50;18.50;99311.00;;;;340067;28;95270;-94
2021/09/18 00:52:30;;;;;;;;;;;18.40;99.50;18.50;99316.00;;;;340866;28;82463;-93
2021/09/18 00:52:42;;;;;;;;;;;18.40;99.50;18.60;99312.00;;;;342608;28;96405;-94
2021/09/18 00:52:54;;;;;;;;;;;18.40;99.40;18.60;99319.00;;;;342356;28;83430;-94
2021/09/18 00:53:06;;;;;;;;;;;18.40;99.40;18.70;99304.00;;;;342804;28;95647;-94
2021/09/18 00:53:18;;;;;;;;;;;18.40;99.40;18.50;99299.00;;;;339419;28;82542;-94
2021/09/18 00:53:30;;;;;;;;;;;18.40;99.40;18.40;99310.00;;;;337440;28;96446;-94
2021/09/18 00:53:42;;;;;;;;;;;18.40;99.50;18.50;99308.00;;;;340819;28;82586;-94
2021/09/18 00:53:54;;;;;;;;;;;18.40;99.50;18.60;99307.00;;;;341404;28;95717;-93
2021/09/18 00:54:06;;;;;;;;;;;18.40;99.50;18.60;99308.00;;;;339486;28;82618;-93
2021/09/18 00:54:20;;;;;;;;;;;18.40;99.50;18.70;99312.00;;;;338639;28;97326;-94
2021/09/18 00:54:32;;;;;;;;;;;18.40;99.50;18.60;99307.00;;;;340838;28;83351;-94
2021/09/18 00:54:44;;;;;;;;;;;18.40;99.60;18.70;99312.00;;;;341331;28;95890;-94
2021/09/18 00:54:56;;;;;;;;;;;18.40;99.50;18.70;99310.00;;;;340843;28;83361;-94
2021/09/18 00:55:09;;;;;;;;;;;18.40;99.50;18.60;99316.00;;;;342727;28;97041;-93
2021/09/18 00:55:21;;;;;;;;;;;18.40;99.50;18.60;99311.00;;;;343461;28;82553;-94
2021/09/18 00:55:33;;;;;;;;;;;18.40;99.50;18.70;99308.00;;;;341277;28;96810;-94
2021/09/18 00:55:44;;;;;;;;;;;18.40;99.50;18.50;99305.00;;;;343502;28;82589;-94
2021/09/18 00:55:56;;;;;;;;;;;18.40;99.50;18.50;99319.00;;;;341958;28;93009;-94
2021/09/18 00:56:08;;;;;;;;;;;18.40;99.50;18.60;99308.00;;;;341918;28;83411;-94
2021/09/18 00:56:20;;;;;;;;;;;18.40;99.50;18.70;99311.00;;;;343811;28;96738;-94
2021/09/18 00:56:32;;;;;;;;;;;18.40;99.50;18.80;99306.00;;;;341939;28;82295;-93
2021/09/18 00:56:44;;;;;;;;;;;18.40;99.60;18.70;99306.00;;;;338423;28;96720;-93
2021/09/18 00:56:55;;;;;;;;;;;18.40;99.50;18.70;99311.00;;;;340759;28;83400;-94
2021/09/18 00:57:07;;;;;;;;;;;18.40;99.50;18.70;99307.00;;;;344002;28;96471;-93
2021/09/18 00:57:19;;;;;;;;;;;18.50;99.50;18.70;99311.00;;;;340688;28;83422;-94
2021/09/18 00:57:31;;;;;;;;;;;18.40;99.40;18.70;99300.00;;;;341534;28;95414;-93
2021/09/18 00:57:43;;;;;;;;;;;18.50;99.40;18.60;99306.00;;;;343428;28;82626;-94
2021/09/18 00:57:55;;;;;;;;;;;18.40;99.50;18.50;99299.00;;;;341343;28;96307;-94
2021/09/18 00:58:06;;;;;;;;;;;18.40;99.50;18.50;99300.00;;;;340773;28;83381;-94
2021/09/18 00:58:18;;;;;;;;;;;18.40;99.40;18.50;99300.00;;;;341368;28;97401;-94
2021/09/18 00:58:30;;;;;;;;;;;18.40;99.50;18.40;99310.00;;;;342167;28;83418;-94
2021/09/18 00:58:42;;;;;;;;;;;18.40;99.60;18.50;99305.00;;;;341360;28;95960;-94
2021/09/18 00:58:54;;;;;;;;;;;18.40;99.50;18.60;99307.00;;;;341646;28;83389;-95
2021/09/18 00:59:05;;;;;;;;;;;18.40;99.50;18.50;99308.00;;;;337948;28;97029;-94
2021/09/18 00:59:17;;;;;;;;;;;18.40;99.50;18.50;99310.00;;;;340777;28;82613;-93